createdAt,value
2023-04-05T00:00:38.558Z,10.55
2023-04-05T00:03:06.259Z,11.57
2023-04-05T00:05:34.756Z,10.32
2023-04-05T00:08:03.767Z,9.88
2023-04-05T00:10:32.178Z,10.10
2023-04-05T00:12:59.471Z,9.98
2023-04-05T00:15:28.210Z,9.65
2023-04-05T00:17:56.698Z,10.48
2023-04-05T00:20:24.083Z,10.30
2023-04-05T00:22:51.875Z,10.75
2023-04-05T00:25:19.107Z,9.85
2023-04-05T00:27:46.411Z,10.75
2023-04-05T00:30:15.180Z,10.07
2023-04-05T00:32:42.319Z,9.82
2023-04-05T00:35:09.556Z,9.73
2023-04-05T00:37:36.563Z,10.07
2023-04-05T00:40:04.466Z,9.45
2023-04-05T00:42:31.374Z,10.38
2023-04-05T00:44:58.226Z,9.55
2023-04-05T00:47:25.198Z,9.73
2023-04-05T00:49:53.403Z,9.25
2023-04-05T00:52:23.701Z,10.30
2023-04-05T00:54:52.277Z,9.70
2023-04-05T00:57:19.167Z,10.07
2023-04-05T00:59:46.059Z,9.52
2023-04-05T01:02:29.299Z,9.45
2023-04-05T01:05:04.311Z,8.90
2023-04-05T01:08:12.467Z,9.00
2023-04-05T01:10:45.262Z,9.60
2023-04-05T01:13:12.641Z,10.30
2023-04-05T01:15:39.503Z,9.77
2023-04-05T01:18:06.480Z,8.90
2023-04-05T01:20:41.215Z,9.43
2023-04-05T01:23:23.298Z,9.65
2023-04-05T01:26:24.565Z,9.57
2023-04-05T01:29:22.388Z,9.77
2023-04-05T01:32:18.626Z,8.73
2023-04-05T01:34:59.387Z,10.10
2023-04-05T01:37:31.477Z,9.60
2023-04-05T01:40:00.683Z,8.85
2023-04-05T01:42:28.286Z,9.43
2023-04-05T01:44:57.746Z,9.77
2023-04-05T01:47:25.004Z,9.13
2023-04-05T01:49:52.305Z,9.35
2023-04-05T01:52:19.196Z,9.35
2023-04-05T01:54:46.086Z,8.95
2023-04-05T01:57:12.963Z,8.98
2023-04-05T01:59:39.847Z,9.50
2023-04-05T02:02:07.000Z,9.55
2023-04-05T02:04:34.102Z,9.20
2023-04-05T02:07:01.293Z,10.23
2023-04-05T02:09:28.513Z,9.48
2023-04-05T02:11:56.558Z,9.32
2023-04-05T02:14:25.102Z,9.98
2023-04-05T02:16:56.759Z,9.02
2023-04-05T02:19:23.982Z,8.70
2023-04-05T02:21:52.588Z,10.55
2023-04-05T02:24:20.563Z,10.00
2023-04-05T02:26:48.193Z,9.45
2023-04-05T02:29:15.356Z,10.07
2023-04-05T02:31:42.332Z,10.15
2023-04-05T02:34:11.905Z,9.95
2023-04-05T02:36:38.990Z,10.15
2023-04-05T02:39:05.874Z,10.10
2023-04-05T02:41:32.819Z,9.70
2023-04-05T02:44:00.485Z,9.10
2023-04-05T02:46:27.390Z,11.10
2023-04-05T02:48:54.251Z,11.10
2023-04-05T02:51:21.127Z,11.10
2023-04-05T02:53:48.407Z,10.35
2023-04-05T02:56:15.375Z,10.70
2023-04-05T02:58:42.674Z,11.60
2023-04-05T03:01:09.527Z,11.18
2023-04-05T03:03:37.762Z,9.82
2023-04-05T03:06:15.766Z,10.43
2023-04-05T03:08:48.859Z,11.82
2023-04-05T03:11:15.930Z,10.82
2023-04-05T03:13:42.796Z,11.52
2023-04-05T03:16:09.877Z,10.30
2023-04-05T03:18:36.981Z,9.82
2023-04-05T03:21:04.789Z,11.05
2023-04-05T03:23:32.903Z,11.20
2023-04-05T03:26:03.906Z,11.65
2023-04-05T03:28:34.545Z,10.85
2023-04-05T03:31:01.507Z,11.13
2023-04-05T03:33:28.711Z,10.68
2023-04-05T03:35:55.670Z,11.70
2023-04-05T03:38:22.571Z,9.95
2023-04-05T03:40:49.465Z,9.73
2023-04-05T03:43:17.065Z,11.20
2023-04-05T03:45:43.962Z,11.07
2023-04-05T03:48:10.897Z,9.57
2023-04-05T03:50:37.795Z,10.52
2023-04-05T03:53:05.164Z,10.57
2023-04-05T03:55:32.542Z,11.23
2023-04-05T03:57:59.610Z,10.63
2023-04-05T04:00:26.524Z,10.65
2023-04-05T04:02:53.750Z,10.32
2023-04-05T04:05:22.088Z,10.45
2023-04-05T04:07:49.073Z,11.68
2023-04-05T04:10:20.246Z,10.60
2023-04-05T04:12:47.264Z,11.70
2023-04-05T04:15:14.163Z,11.82
2023-04-05T04:17:41.276Z,11.98
2023-04-05T04:20:12.235Z,11.60
2023-04-05T04:22:40.791Z,11.27
2023-04-05T04:25:10.787Z,12.25
2023-04-05T04:27:42.229Z,12.35
2023-04-05T04:30:15.133Z,12.98
2023-04-05T04:32:52.333Z,12.07
2023-04-05T04:35:29.383Z,12.90
2023-04-05T04:38:05.191Z,12.55
2023-04-05T04:40:41.486Z,13.00
2023-04-05T04:43:14.572Z,11.15
2023-04-05T04:45:42.016Z,11.80
2023-04-05T04:48:10.155Z,12.43
2023-04-05T04:50:37.821Z,12.60
2023-04-05T04:53:05.110Z,12.93
2023-04-05T04:55:33.709Z,12.82
2023-04-05T04:58:01.045Z,13.82
2023-04-05T05:00:27.964Z,12.93
2023-04-05T05:02:56.551Z,12.85
2023-04-05T05:05:23.650Z,12.60
2023-04-05T05:07:53.012Z,12.00
2023-04-05T05:10:20.874Z,11.35
2023-04-05T05:12:49.252Z,12.38
2023-04-05T05:15:16.123Z,13.30
2023-04-05T05:17:43.132Z,12.45
2023-04-05T05:20:11.502Z,14.88
2023-04-05T05:22:39.994Z,13.38
2023-04-05T05:25:08.985Z,12.85
2023-04-05T05:27:36.573Z,13.25
2023-04-05T05:30:04.857Z,14.10
2023-04-05T05:32:31.776Z,13.93
2023-04-05T05:34:58.990Z,14.30
2023-04-05T05:37:33.195Z,12.75
2023-04-05T05:40:00.698Z,13.03
2023-04-05T05:42:28.027Z,13.68
2023-04-05T05:44:54.912Z,14.23
2023-04-05T05:47:22.061Z,12.80
2023-04-05T05:49:49.995Z,14.43
2023-04-05T05:52:17.551Z,13.88
2023-04-05T05:54:44.418Z,14.50
2023-04-05T05:57:11.638Z,15.20
2023-04-05T05:59:38.864Z,15.18
2023-04-05T06:02:05.930Z,12.80
2023-04-05T06:04:34.643Z,13.30
2023-04-05T06:07:01.996Z,13.15
2023-04-05T06:09:29.506Z,14.98
2023-04-05T06:11:57.460Z,15.93
2023-04-05T06:14:25.808Z,13.80
2023-04-05T06:16:53.154Z,15.77
2023-04-05T06:19:23.463Z,15.40
2023-04-05T06:21:50.375Z,15.77
2023-04-05T06:24:17.214Z,15.00
2023-04-05T06:26:44.121Z,16.05
2023-04-05T06:29:10.966Z,14.90
2023-04-05T06:31:38.240Z,14.80
2023-04-05T06:34:05.236Z,15.40
2023-04-05T06:36:34.529Z,14.57
2023-04-05T06:39:01.804Z,15.35
2023-04-05T06:41:28.762Z,15.68
2023-04-05T06:43:56.775Z,15.88
2023-04-05T06:46:24.802Z,16.67
2023-04-05T06:48:52.887Z,16.13
2023-04-05T06:51:21.098Z,15.45
2023-04-05T06:53:48.042Z,14.23
2023-04-05T06:56:14.905Z,15.88
2023-04-05T06:58:42.087Z,16.83
2023-04-05T07:01:09.091Z,16.05
2023-04-05T07:03:36.400Z,17.00
2023-04-05T07:06:04.806Z,16.13
2023-04-05T07:08:33.632Z,16.08
2023-04-05T07:11:00.850Z,16.98
2023-04-05T07:13:28.185Z,15.80
2023-04-05T07:16:03.526Z,17.42
2023-04-05T07:18:30.587Z,17.05
2023-04-05T07:21:04.176Z,16.40
2023-04-05T07:23:31.834Z,17.13
2023-04-05T07:26:07.625Z,17.15
2023-04-05T07:28:36.114Z,16.20
2023-04-05T07:31:05.988Z,17.98
2023-04-05T07:33:33.282Z,17.63
2023-04-05T07:36:00.744Z,17.63
2023-04-05T07:38:29.371Z,16.73
2023-04-05T07:40:56.669Z,17.38
2023-04-05T07:43:25.812Z,16.77
2023-04-05T07:45:53.969Z,16.80
2023-04-05T07:48:21.322Z,17.88
2023-04-05T07:50:48.939Z,18.33
2023-04-05T07:53:15.922Z,20.50
2023-04-05T07:55:43.343Z,21.85
2023-04-05T07:58:11.278Z,21.38
2023-04-05T08:00:38.960Z,25.15
2023-04-05T08:03:07.566Z,23.38
2023-04-05T08:05:34.559Z,25.00
2023-04-05T08:08:01.792Z,24.38
2023-04-05T08:10:28.696Z,23.13
2023-04-05T08:12:55.764Z,22.05
2023-04-05T08:15:22.923Z,20.20
2023-04-05T08:17:49.823Z,21.13
2023-04-05T08:20:16.861Z,19.65
2023-04-05T08:22:44.136Z,19.00
2023-04-05T08:25:11.055Z,18.80
2023-04-05T08:27:38.097Z,17.60
2023-04-05T08:30:06.330Z,19.30
2023-04-05T08:32:33.317Z,17.73
2023-04-05T08:35:00.283Z,17.42
2023-04-05T08:37:28.121Z,17.60
2023-04-05T08:39:55.445Z,17.63
2023-04-05T08:42:37.904Z,17.58
2023-04-05T08:45:09.873Z,17.63
2023-04-05T08:47:39.323Z,17.77
2023-04-05T08:50:09.199Z,16.77
2023-04-05T08:52:38.798Z,18.80
2023-04-05T08:55:06.917Z,17.63
2023-04-05T08:57:38.116Z,18.70
2023-04-05T09:00:09.853Z,17.27
2023-04-05T09:02:38.137Z,16.85
2023-04-05T09:05:09.595Z,16.38
2023-04-05T09:07:38.726Z,19.10
2023-04-05T09:10:07.635Z,18.40
2023-04-05T09:12:36.829Z,18.35
2023-04-05T09:15:03.946Z,18.58
2023-04-05T09:17:35.534Z,19.73
2023-04-05T09:20:02.645Z,16.65
2023-04-05T09:22:29.595Z,18.73
2023-04-05T09:24:56.845Z,18.95
2023-04-05T09:27:24.111Z,17.50
2023-04-05T09:29:51.291Z,19.23
2023-04-05T09:32:20.789Z,18.58
2023-04-05T09:34:49.018Z,17.80
2023-04-05T09:37:21.593Z,20.73
2023-04-05T09:39:52.240Z,19.50
2023-04-05T09:42:23.436Z,18.48
2023-04-05T09:45:08.788Z,19.13
2023-04-05T09:47:35.783Z,17.83
2023-04-05T09:50:15.313Z,18.48
2023-04-05T09:52:43.685Z,16.35
2023-04-05T09:55:11.927Z,17.20
2023-04-05T09:57:41.649Z,16.80
2023-04-05T10:00:21.279Z,17.38
2023-04-05T10:02:54.700Z,17.63
2023-04-05T10:05:28.431Z,15.95
2023-04-05T10:07:58.908Z,16.67
2023-04-05T10:10:26.404Z,16.23
2023-04-05T10:12:54.882Z,15.90
2023-04-05T10:15:25.204Z,15.93
2023-04-05T10:18:01.342Z,15.98
2023-04-05T10:20:30.950Z,17.58
2023-04-05T10:23:26.840Z,16.88
2023-04-05T10:28:37.065Z,16.83
2023-04-05T10:31:36.896Z,17.08
2023-04-05T10:34:21.948Z,17.85
2023-04-05T10:36:57.731Z,18.15
2023-04-05T10:39:41.989Z,19.27
2023-04-05T10:42:20.258Z,18.45
2023-04-05T10:44:55.805Z,17.60
2023-04-05T10:47:24.435Z,17.30
2023-04-05T10:49:57.013Z,16.92
2023-04-05T10:52:25.262Z,17.75
2023-04-05T10:54:53.221Z,17.98
2023-04-05T10:57:21.608Z,17.38
2023-04-05T10:59:49.797Z,18.63
2023-04-05T11:02:17.243Z,16.08
2023-04-05T11:04:44.499Z,17.02
2023-04-05T11:07:16.987Z,16.25
2023-04-05T11:10:05.647Z,17.38
2023-04-05T11:12:53.771Z,16.77
2023-04-05T11:15:29.522Z,18.25
2023-04-05T11:18:08.220Z,17.80
2023-04-05T11:20:52.005Z,18.73
2023-04-05T11:23:25.829Z,20.27
2023-04-05T11:26:05.321Z,17.77
2023-04-05T11:28:40.777Z,18.52
2023-04-05T11:31:20.511Z,18.58
2023-04-05T11:33:56.211Z,18.65
2023-04-05T11:36:36.068Z,19.08
2023-04-05T11:39:24.178Z,19.63
2023-04-05T11:42:06.991Z,19.17
2023-04-05T11:44:45.292Z,17.90
2023-04-05T11:47:13.350Z,18.00
2023-04-05T11:49:42.703Z,18.52
2023-04-05T11:52:19.446Z,17.73
2023-04-05T11:54:47.007Z,18.98
2023-04-05T11:57:19.784Z,17.52
2023-04-05T11:59:46.837Z,17.40
2023-04-05T12:02:14.044Z,17.27
2023-04-05T12:04:41.140Z,18.63
2023-04-05T12:07:20.116Z,18.20
2023-04-05T12:10:11.263Z,17.52
2023-04-05T12:12:41.326Z,16.73
2023-04-05T12:15:12.121Z,15.95
2023-04-05T12:17:44.566Z,16.77
2023-04-05T12:20:24.828Z,16.00
2023-04-05T12:22:56.868Z,17.02
2023-04-05T12:25:25.231Z,16.90
2023-04-05T12:27:52.420Z,16.10
2023-04-05T12:30:23.234Z,16.67
2023-04-05T12:32:55.567Z,16.75
2023-04-05T12:35:27.322Z,17.70
2023-04-05T12:37:58.119Z,14.75
2023-04-05T12:40:26.128Z,16.33
2023-04-05T12:42:53.014Z,17.40
2023-04-05T12:45:24.125Z,16.27
2023-04-05T12:48:01.273Z,16.40
2023-04-05T12:50:30.991Z,16.67
2023-04-05T12:53:00.437Z,17.40
2023-04-05T12:55:29.850Z,17.48
2023-04-05T12:58:02.402Z,18.58
2023-04-05T13:00:31.288Z,17.35
2023-04-05T13:03:00.104Z,16.67
2023-04-05T13:05:30.633Z,16.83
2023-04-05T13:07:59.014Z,16.63
2023-04-05T13:10:26.611Z,16.85
2023-04-05T13:12:53.631Z,15.85
2023-04-05T13:15:21.118Z,19.02
2023-04-05T13:17:50.421Z,15.50
2023-04-05T13:20:18.475Z,16.40
2023-04-05T13:22:46.711Z,17.02
2023-04-05T13:25:15.087Z,16.85
2023-04-05T13:27:42.075Z,14.93
2023-04-05T13:30:10.275Z,15.55
2023-04-05T13:32:37.286Z,16.02
2023-04-05T13:35:05.999Z,15.35
2023-04-05T13:37:33.124Z,14.85
2023-04-05T13:40:00.591Z,15.43
2023-04-05T13:42:27.673Z,14.85
2023-04-05T13:44:54.519Z,16.88
2023-04-05T13:47:21.358Z,15.82
2023-04-05T13:49:48.261Z,15.23
2023-04-05T13:52:15.197Z,14.63
2023-04-05T13:54:42.134Z,14.48
2023-04-05T13:57:09.133Z,14.60
2023-04-05T13:59:36.453Z,16.00
2023-04-05T14:02:03.562Z,14.07
2023-04-05T14:04:31.137Z,15.82
2023-04-05T14:06:58.108Z,15.85
2023-04-05T14:09:25.166Z,14.07
2023-04-05T14:11:52.599Z,14.05
2023-04-05T14:14:19.485Z,14.68
2023-04-05T14:16:47.046Z,14.40
2023-04-05T14:19:14.112Z,15.40
2023-04-05T14:21:41.224Z,14.48
2023-04-05T14:24:09.070Z,15.77
2023-04-05T14:26:36.834Z,16.25
2023-04-05T14:29:04.324Z,14.57
2023-04-05T14:31:31.462Z,14.68
2023-04-05T14:33:58.480Z,14.57
2023-04-05T14:36:26.835Z,13.77
2023-04-05T14:38:53.718Z,14.77
2023-04-05T14:41:20.874Z,13.27
2023-04-05T14:43:47.997Z,12.95
2023-04-05T14:46:14.960Z,13.63
2023-04-05T14:48:41.990Z,13.68
2023-04-05T14:51:08.954Z,13.50
2023-04-05T14:53:36.130Z,12.43
2023-04-05T14:56:04.076Z,12.48
2023-04-05T14:58:31.060Z,12.40
2023-04-05T15:00:57.997Z,12.15
2023-04-05T15:03:25.101Z,13.35
2023-04-05T15:05:52.247Z,13.60
2023-04-05T15:08:19.540Z,12.15
2023-04-05T15:10:46.802Z,13.70
2023-04-05T15:13:14.313Z,13.30
2023-04-05T15:15:41.300Z,13.30
2023-04-05T15:18:08.501Z,14.65
2023-04-05T15:20:35.976Z,13.50
2023-04-05T15:23:03.204Z,12.65
2023-04-05T15:25:30.879Z,13.43
2023-04-05T15:28:02.071Z,13.77
2023-04-05T15:30:31.941Z,13.02
2023-04-05T15:32:59.262Z,14.32
2023-04-05T15:35:26.567Z,15.45
2023-04-05T15:37:53.689Z,13.60
2023-04-05T15:40:20.995Z,12.90
2023-04-05T15:42:47.933Z,13.18
2023-04-05T15:45:15.243Z,13.65
2023-04-05T15:47:42.237Z,14.68
2023-04-05T15:50:09.327Z,14.55
2023-04-05T15:52:36.538Z,14.23
2023-04-05T15:55:04.380Z,14.55
2023-04-05T15:57:31.327Z,13.52
2023-04-05T15:59:58.252Z,13.75
2023-04-05T16:02:25.759Z,14.23
2023-04-05T16:04:53.039Z,15.75
2023-04-05T16:07:20.075Z,15.18
2023-04-05T16:09:47.136Z,14.85
2023-04-05T16:12:14.269Z,14.68
2023-04-05T16:14:41.313Z,15.02
2023-04-05T16:17:08.282Z,15.25
2023-04-05T16:19:35.249Z,15.10
2023-04-05T16:22:03.623Z,16.52
2023-04-05T16:24:33.379Z,14.88
2023-04-05T16:27:00.313Z,13.68
2023-04-05T16:29:27.465Z,14.35
2023-04-05T16:31:54.625Z,14.10
2023-04-05T16:34:21.714Z,13.93
2023-04-05T16:36:48.775Z,13.10
2023-04-05T16:39:15.755Z,13.15
2023-04-05T16:41:42.692Z,13.68
2023-04-05T16:44:09.799Z,13.23
2023-04-05T16:46:37.046Z,13.73
2023-04-05T16:49:04.164Z,13.07
2023-04-05T16:51:31.925Z,13.18
2023-04-05T16:53:59.051Z,13.60
2023-04-05T16:56:26.009Z,13.38
2023-04-05T16:58:53.151Z,14.02
2023-04-05T17:01:20.236Z,14.90
2023-04-05T17:03:47.316Z,13.63
2023-04-05T17:06:15.316Z,14.38
2023-04-05T17:08:42.456Z,14.02
2023-04-05T17:11:09.408Z,15.15
2023-04-05T17:13:36.389Z,14.25
2023-04-05T17:16:03.434Z,14.13
2023-04-05T17:18:30.815Z,14.32
2023-04-05T17:20:57.741Z,13.57
2023-04-05T17:23:25.805Z,15.38
2023-04-05T17:25:52.966Z,16.08
2023-04-05T17:28:19.974Z,15.43
2023-04-05T17:30:47.307Z,14.88
2023-04-05T17:33:14.260Z,14.73
2023-04-05T17:35:41.335Z,15.25
2023-04-05T17:38:08.249Z,14.82
2023-04-05T17:40:35.144Z,15.57
2023-04-05T17:43:02.389Z,14.50
2023-04-05T17:45:29.261Z,14.50
2023-04-05T17:47:56.564Z,14.77
2023-04-05T17:50:24.972Z,14.88
2023-04-05T17:52:51.969Z,14.48
2023-04-05T17:55:18.933Z,13.60
2023-04-05T17:57:46.035Z,13.90
2023-04-05T18:00:13.798Z,14.20
2023-04-05T18:02:41.801Z,15.77
2023-04-05T18:05:10.430Z,16.05
2023-04-05T18:07:38.734Z,15.93
2023-04-05T18:10:07.095Z,15.88
2023-04-05T18:12:34.334Z,15.38
2023-04-05T18:15:01.297Z,14.77
2023-04-05T18:17:28.472Z,15.65
2023-04-05T18:19:55.589Z,15.02
2023-04-05T18:22:23.455Z,15.93
2023-04-05T18:24:50.565Z,14.15
2023-04-05T18:27:18.088Z,16.35
2023-04-05T18:29:46.411Z,15.73
2023-04-05T18:32:13.369Z,16.80
2023-04-05T18:34:40.586Z,16.08
2023-04-05T18:37:07.572Z,16.88
2023-04-05T18:39:34.510Z,16.27
2023-04-05T18:42:01.474Z,16.23
2023-04-05T18:44:28.525Z,18.40
2023-04-05T18:46:55.608Z,15.95
2023-04-05T18:49:22.836Z,16.45
2023-04-05T18:51:49.898Z,17.52
2023-04-05T18:54:18.670Z,15.73
2023-04-05T18:56:46.256Z,16.13
2023-04-05T18:59:13.281Z,16.77
2023-04-05T19:01:40.305Z,16.30
2023-04-05T19:04:07.778Z,15.52
2023-04-05T19:06:35.164Z,16.23
2023-04-05T19:09:02.740Z,16.95
2023-04-05T19:11:29.667Z,15.90
2023-04-05T19:13:56.783Z,14.98
2023-04-05T19:16:23.797Z,15.50
2023-04-05T19:18:51.136Z,18.38
2023-04-05T19:21:18.099Z,16.15
2023-04-05T19:23:45.140Z,17.65
2023-04-05T19:26:13.266Z,16.60
2023-04-05T19:28:40.359Z,16.33
2023-04-05T19:31:07.642Z,16.35
2023-04-05T19:33:34.599Z,14.60
2023-04-05T19:36:02.648Z,14.93
2023-04-05T19:38:29.689Z,15.70
2023-04-05T19:40:56.772Z,17.30
2023-04-05T19:43:26.924Z,17.25
2023-04-05T19:45:59.902Z,14.68
2023-04-05T19:48:41.854Z,15.63
2023-04-05T19:51:14.573Z,14.70
2023-04-05T19:53:49.670Z,13.35
2023-04-05T19:56:31.170Z,13.60
2023-04-05T19:59:19.109Z,13.45
2023-04-05T20:01:48.241Z,13.32
2023-04-05T20:04:19.047Z,13.13
2023-04-05T20:06:54.357Z,14.75
2023-04-05T20:09:30.944Z,13.07
2023-04-05T20:12:03.932Z,14.45
2023-04-05T20:14:42.254Z,13.95
2023-04-05T20:17:12.616Z,13.00
2023-04-05T20:19:41.770Z,12.82
2023-04-05T20:22:09.760Z,12.70
2023-04-05T20:24:40.190Z,12.63
2023-04-05T20:27:07.312Z,12.38
2023-04-05T20:29:36.203Z,13.82
2023-04-05T20:32:03.621Z,13.73
2023-04-05T20:34:36.690Z,14.45
2023-04-05T20:37:08.115Z,12.82
2023-04-05T20:39:35.898Z,14.30
2023-04-05T20:42:04.237Z,14.65
2023-04-05T20:44:31.707Z,12.18
2023-04-05T20:46:58.862Z,11.98
2023-04-05T20:49:26.297Z,13.60
2023-04-05T20:51:57.817Z,14.70
2023-04-05T20:54:24.877Z,13.40
2023-04-05T20:56:52.115Z,13.52
2023-04-05T20:59:19.129Z,14.90
2023-04-05T21:01:47.694Z,13.15
2023-04-05T21:04:15.032Z,16.20
2023-04-05T21:06:42.517Z,14.63
2023-04-05T21:09:10.352Z,13.93
2023-04-05T21:11:37.627Z,17.30
2023-04-05T21:14:04.689Z,16.77
2023-04-05T21:16:32.016Z,15.88
2023-04-05T21:18:58.962Z,14.77
2023-04-05T21:21:26.476Z,16.58
2023-04-05T21:23:53.434Z,15.98
2023-04-05T21:26:20.354Z,15.27
2023-04-05T21:28:47.228Z,16.67
2023-04-05T21:31:14.240Z,17.25
2023-04-05T21:33:41.821Z,18.50
2023-04-05T21:36:08.938Z,15.68
2023-04-05T21:38:36.536Z,14.65
2023-04-05T21:41:03.469Z,18.17
2023-04-05T21:43:30.426Z,16.35
2023-04-05T21:45:57.768Z,17.10
2023-04-05T21:48:24.968Z,16.90
2023-04-05T21:50:52.103Z,15.95
2023-04-05T21:53:19.096Z,15.75
2023-04-05T21:55:46.279Z,16.25
2023-04-05T21:58:13.271Z,16.48
2023-04-05T22:00:40.202Z,16.10
2023-04-05T22:03:07.268Z,15.88
2023-04-05T22:05:38.446Z,16.08
2023-04-05T22:08:07.646Z,17.65
2023-04-05T22:10:36.604Z,15.98
2023-04-05T22:13:03.592Z,16.02
2023-04-05T22:15:30.472Z,17.38
2023-04-05T22:17:57.532Z,15.93
2023-04-05T22:20:24.429Z,17.98
2023-04-05T22:22:52.313Z,16.33
2023-04-05T22:25:19.349Z,18.38
2023-04-05T22:27:46.373Z,17.20
2023-04-05T22:30:13.979Z,18.63
2023-04-05T22:32:41.092Z,18.50
2023-04-05T22:35:08.710Z,19.55
2023-04-05T22:37:36.788Z,16.90
2023-04-05T22:40:05.087Z,18.23
2023-04-05T22:42:32.261Z,16.77
2023-04-05T22:44:59.235Z,16.60
2023-04-05T22:47:26.636Z,17.30
2023-04-05T22:49:53.862Z,17.08
2023-04-05T22:52:20.889Z,18.00
2023-04-05T22:54:48.015Z,16.25
2023-04-05T22:57:14.977Z,17.15
2023-04-05T22:59:42.286Z,16.80
2023-04-05T23:02:10.101Z,19.05
2023-04-05T23:04:37.019Z,16.58
2023-04-05T23:07:03.992Z,16.20
2023-04-05T23:09:31.209Z,16.60
2023-04-05T23:11:58.139Z,18.40
2023-04-05T23:14:25.111Z,17.42
2023-04-05T23:16:51.967Z,16.73
2023-04-05T23:19:18.855Z,18.17
2023-04-05T23:21:45.958Z,18.52
2023-04-05T23:24:12.923Z,18.40
2023-04-05T23:26:40.146Z,17.15
2023-04-05T23:29:07.288Z,17.20
2023-04-05T23:31:34.789Z,16.42
2023-04-05T23:34:01.654Z,17.13
2023-04-05T23:36:29.032Z,17.35
2023-04-05T23:38:58.467Z,16.85
2023-04-05T23:41:25.489Z,18.70
2023-04-05T23:43:52.551Z,18.83
2023-04-05T23:46:19.480Z,18.58
2023-04-05T23:48:46.578Z,19.98
2023-04-05T23:51:13.585Z,18.25
2023-04-05T23:53:40.588Z,18.92
2023-04-05T23:56:07.783Z,17.00
2023-04-05T23:58:34.897Z,16.23
